Terminal Aerodrome Forecast
Issued by NWS Grand Forks, ND

Home | Current Version | Previous Version | Text Only | Print | Product List | Glossary Off
Versions: 1 2 3 4 5 6 7 8 9 10 11 12 13 14 15 16 17 18 19 20 21 22 23

372
FTUS43 KFGF 171034 AAA
TAFGFK
TAF AMD
KGFK 171034Z 1711/1806 07014KT P6SM VCSH BKN100
     FM171300 08014KT P6SM BKN100
     FM171900 10013G21KT P6SM VCSH SCT020 BKN080
     FM172100 09014KT P6SM VCSH SCT020 OVC060=

USA.gov is the U.S. government's official web portal to all federal, state and local government web resources and services.